createdAt,value
2022-11-30T00:00:32.370Z,0.90
2022-11-30T00:05:34.187Z,0.80
2022-11-30T00:10:38.234Z,0.80
2022-11-30T00:15:40.109Z,0.90
2022-11-30T00:20:41.934Z,0.90
2022-11-30T00:25:43.763Z,0.90
2022-11-30T00:30:45.771Z,0.90
2022-11-30T00:35:56.408Z,1.00
2022-11-30T00:40:58.603Z,0.90
2022-11-30T00:46:00.641Z,0.90
2022-11-30T00:51:02.511Z,0.90
2022-11-30T00:56:04.899Z,0.80
2022-11-30T01:01:07.483Z,0.70
2022-11-30T01:06:09.819Z,0.70
2022-11-30T01:11:13.843Z,0.70
2022-11-30T01:16:19.469Z,0.60
2022-11-30T01:21:23.320Z,0.60
2022-11-30T01:26:25.444Z,0.70
2022-11-30T01:31:27.352Z,0.70
2022-11-30T01:36:29.170Z,0.70
2022-11-30T01:41:32.508Z,0.70
2022-11-30T01:46:36.997Z,0.80
2022-11-30T01:51:41.096Z,0.80
2022-11-30T01:56:46.451Z,0.80
2022-11-30T02:01:48.386Z,0.90
2022-11-30T02:06:50.464Z,0.90
2022-11-30T02:11:52.491Z,1.00
2022-11-30T02:17:06.172Z,1.00
2022-11-30T02:22:11.120Z,1.00
2022-11-30T02:27:23.236Z,1.00
2022-11-30T02:32:35.096Z,1.00
2022-11-30T02:37:37.579Z,1.00
2022-11-30T02:42:39.467Z,0.90
2022-11-30T02:47:48.126Z,0.90
2022-11-30T02:52:50.882Z,0.90
2022-11-30T02:57:52.697Z,0.90
2022-11-30T03:02:55.194Z,0.90
2022-11-30T03:07:57.057Z,1.00
2022-11-30T03:12:59.529Z,1.00
2022-11-30T03:18:02.758Z,1.00
2022-11-30T03:23:04.580Z,1.10
2022-11-30T03:28:06.434Z,1.10
2022-11-30T03:33:08.399Z,1.20
2022-11-30T03:38:10.394Z,1.20
2022-11-30T03:43:12.275Z,1.20
2022-11-30T03:48:14.120Z,1.40
2022-11-30T03:53:18.053Z,1.40
2022-11-30T03:58:19.879Z,1.30
2022-11-30T04:03:22.233Z,1.40
2022-11-30T04:08:24.291Z,1.30
2022-11-30T04:13:26.700Z,1.30
2022-11-30T04:18:30.335Z,1.30
2022-11-30T04:23:34.649Z,1.30
2022-11-30T04:28:36.560Z,1.40
2022-11-30T04:33:38.853Z,1.40
2022-11-30T04:38:40.675Z,1.40
2022-11-30T04:43:42.572Z,1.50
2022-11-30T04:48:44.433Z,1.50
2022-11-30T04:53:46.284Z,1.60
2022-11-30T04:58:48.187Z,1.60
2022-11-30T05:03:50.114Z,1.50
2022-11-30T05:08:51.991Z,1.60
2022-11-30T05:13:53.832Z,1.60
2022-11-30T05:18:55.661Z,1.50
2022-11-30T05:23:57.479Z,1.50
2022-11-30T05:28:59.358Z,1.60
2022-11-30T05:34:01.208Z,1.60
2022-11-30T05:39:03.244Z,1.60
2022-11-30T05:44:05.227Z,1.60
2022-11-30T05:49:07.134Z,1.60
2022-11-30T05:54:09.224Z,1.60
2022-11-30T05:59:11.787Z,1.60
2022-11-30T06:04:13.636Z,1.60
2022-11-30T06:09:15.537Z,1.60
2022-11-30T06:14:17.406Z,1.60
2022-11-30T06:19:19.215Z,1.70
2022-11-30T06:24:21.068Z,1.70
2022-11-30T06:29:22.907Z,1.70
2022-11-30T06:34:24.971Z,1.80
2022-11-30T06:39:50.158Z,1.80
2022-11-30T06:44:49.372Z,1.80
2022-11-30T06:49:51.651Z,1.90
2022-11-30T06:54:53.475Z,1.90
2022-11-30T06:59:55.629Z,1.90
2022-11-30T07:04:57.488Z,1.90
2022-11-30T07:09:59.358Z,1.90
2022-11-30T07:15:01.182Z,1.90
2022-11-30T07:20:07.021Z,1.90
2022-11-30T07:25:28.161Z,2.00
2022-11-30T07:30:31.323Z,2.00
2022-11-30T07:35:33.195Z,2.10
2022-11-30T07:40:35.030Z,2.10
2022-11-30T07:45:36.967Z,2.20
2022-11-30T07:50:38.828Z,2.30
2022-11-30T07:55:41.571Z,2.30
2022-11-30T08:00:43.554Z,2.30
2022-11-30T08:05:45.535Z,2.40
2022-11-30T08:10:47.353Z,2.40
2022-11-30T08:15:49.246Z,2.50
2022-11-30T08:21:03.202Z,2.60
2022-11-30T08:26:15.095Z,2.60
2022-11-30T08:31:20.764Z,2.70
2022-11-30T08:36:23.846Z,2.70
2022-11-30T08:41:26.394Z,2.70
2022-11-30T08:57:17.699Z,3.10
2022-11-30T09:02:20.065Z,3.30
2022-11-30T09:07:22.211Z,3.50
2022-11-30T09:12:24.718Z,3.70
2022-11-30T09:17:26.572Z,3.80
2022-11-30T09:22:28.802Z,3.90
2022-11-30T09:27:33.858Z,4.10
2022-11-30T09:32:35.763Z,4.20
2022-11-30T09:37:38.860Z,4.30
2022-11-30T09:43:02.652Z,4.40
2022-11-30T09:48:19.727Z,4.50
2022-11-30T09:53:29.667Z,4.70
2022-11-30T09:58:48.266Z,4.80
2022-11-30T10:03:50.135Z,4.90
2022-11-30T10:08:54.855Z,5.00
2022-11-30T10:13:56.825Z,5.10
2022-11-30T10:19:26.550Z,5.20
2022-11-30T10:25:04.778Z,5.40
2022-11-30T10:30:14.371Z,5.50
2022-11-30T10:35:23.544Z,5.50
2022-11-30T10:40:38.505Z,5.60
2022-11-30T10:45:45.136Z,5.60
2022-11-30T10:50:47.473Z,5.60
2022-11-30T10:55:56.846Z,5.70
2022-11-30T11:01:02.302Z,5.70
2022-11-30T11:06:14.591Z,5.80
2022-11-30T11:11:32.401Z,5.80
2022-11-30T11:16:51.643Z,5.90
2022-11-30T11:21:53.864Z,5.90
2022-11-30T11:26:56.701Z,6.00
2022-11-30T11:32:19.629Z,6.00
2022-11-30T11:37:23.187Z,6.00
2022-11-30T11:42:27.195Z,6.10
2022-11-30T11:47:37.288Z,6.10
2022-11-30T11:52:42.535Z,6.10
2022-11-30T11:57:55.165Z,6.10
2022-11-30T12:03:30.295Z,6.10
2022-11-30T12:08:41.280Z,6.10
2022-11-30T12:13:45.691Z,6.10
2022-11-30T12:19:16.719Z,6.20
2022-11-30T12:24:46.130Z,6.30
2022-11-30T12:30:10.090Z,6.30
2022-11-30T12:35:23.697Z,6.30
2022-11-30T12:40:35.604Z,6.30
2022-11-30T12:45:41.197Z,6.40
2022-11-30T12:51:04.117Z,6.40
2022-11-30T12:56:33.955Z,6.30
2022-11-30T13:02:02.195Z,6.40
2022-11-30T13:07:16.567Z,6.40
2022-11-30T13:12:35.960Z,6.40
2022-11-30T13:17:38.037Z,6.40
2022-11-30T13:22:57.731Z,6.40
2022-11-30T13:28:02.535Z,6.40
2022-11-30T13:33:35.313Z,6.40
2022-11-30T13:38:38.246Z,6.30
2022-11-30T13:43:52.096Z,6.30
2022-11-30T13:49:20.589Z,6.20
2022-11-30T13:54:43.749Z,6.20
2022-11-30T13:59:48.643Z,6.20
2022-11-30T14:04:50.769Z,6.10
2022-11-30T14:09:58.671Z,6.00
2022-11-30T14:15:02.257Z,6.00
2022-11-30T14:20:21.702Z,5.90
2022-11-30T14:25:23.712Z,5.90
2022-11-30T14:30:25.550Z,5.80
2022-11-30T14:35:29.720Z,5.70
2022-11-30T14:40:32.531Z,5.70
2022-11-30T14:45:35.008Z,5.60
2022-11-30T14:50:48.681Z,5.60
2022-11-30T14:56:07.079Z,5.60
2022-11-30T15:01:24.300Z,5.50
2022-11-30T15:06:30.934Z,5.40
2022-11-30T15:11:32.802Z,5.40
2022-11-30T15:16:34.887Z,5.40
2022-11-30T15:21:36.861Z,5.30
2022-11-30T15:26:46.595Z,5.30
2022-11-30T15:31:52.025Z,5.30
2022-11-30T15:36:55.713Z,5.20
2022-11-30T15:41:59.892Z,5.20
2022-11-30T15:47:02.681Z,5.10
2022-11-30T15:52:12.355Z,5.10
2022-11-30T15:57:15.550Z,5.10
2022-11-30T16:02:30.851Z,5.10
2022-11-30T16:07:57.455Z,5.00
2022-11-30T16:12:59.718Z,5.00
2022-11-30T16:18:07.587Z,5.00
2022-11-30T16:23:14.411Z,5.00
2022-11-30T16:28:18.487Z,4.90
2022-11-30T16:33:22.622Z,4.90
2022-11-30T16:38:25.166Z,4.80
2022-11-30T16:43:27.150Z,4.80
2022-11-30T16:48:30.807Z,4.80
2022-11-30T16:53:32.792Z,4.80
2022-11-30T16:58:34.615Z,4.70
2022-11-30T17:03:36.740Z,4.70
2022-11-30T17:08:38.887Z,4.70
2022-11-30T17:13:40.703Z,4.70
2022-11-30T17:18:42.816Z,4.70
2022-11-30T17:23:45.209Z,4.70
2022-11-30T17:28:47.062Z,4.60
2022-11-30T17:33:48.942Z,4.60
2022-11-30T17:38:51.079Z,4.60
2022-11-30T17:43:55.322Z,4.60
2022-11-30T17:48:57.420Z,4.50
2022-11-30T17:53:59.495Z,4.50
2022-11-30T17:59:01.351Z,4.50
2022-11-30T18:04:03.464Z,4.50
2022-11-30T18:09:05.364Z,4.50
2022-11-30T18:14:07.788Z,4.50
2022-11-30T18:19:14.603Z,4.50
2022-11-30T18:24:18.911Z,4.50
2022-11-30T18:29:25.251Z,4.40
2022-11-30T18:34:27.170Z,4.40
2022-11-30T18:39:29.004Z,4.40
2022-11-30T18:44:30.940Z,4.40
2022-11-30T18:49:32.755Z,4.40
2022-11-30T18:54:35.174Z,4.40
2022-11-30T18:59:37.243Z,4.30
2022-11-30T19:04:39.222Z,4.30
2022-11-30T19:09:41.013Z,4.30
2022-11-30T19:14:45.315Z,4.30
2022-11-30T19:19:49.348Z,4.20
2022-11-30T19:24:51.403Z,4.20
2022-11-30T19:29:53.295Z,4.20
2022-11-30T19:34:55.158Z,4.10
2022-11-30T19:39:56.999Z,4.10
2022-11-30T19:44:59.463Z,4.00
2022-11-30T19:50:01.928Z,4.00
2022-11-30T19:55:06.030Z,4.00
2022-11-30T20:00:09.251Z,3.90
2022-11-30T20:05:12.189Z,3.90
2022-11-30T20:10:14.143Z,3.80
2022-11-30T20:15:16.372Z,3.80
2022-11-30T20:20:18.188Z,3.80
2022-11-30T20:25:21.170Z,3.70
2022-11-30T20:30:23.322Z,3.70
2022-11-30T20:35:25.987Z,3.60
2022-11-30T20:40:27.876Z,3.60
2022-11-30T20:45:31.030Z,3.60
2022-11-30T20:50:33.024Z,3.60
2022-11-30T20:55:35.199Z,3.50
2022-11-30T21:00:37.061Z,3.50
2022-11-30T21:05:39.180Z,3.50
2022-11-30T21:10:41.002Z,3.40
2022-11-30T21:15:42.888Z,3.40
2022-11-30T21:20:47.782Z,3.30
2022-11-30T21:25:49.618Z,3.30
2022-11-30T21:30:51.455Z,3.20
2022-11-30T21:35:53.366Z,3.30
2022-11-30T21:40:59.978Z,3.20
2022-11-30T21:46:04.277Z,3.20
2022-11-30T21:51:10.000Z,3.20
2022-11-30T21:56:13.929Z,3.20
2022-11-30T22:01:29.756Z,3.10
2022-11-30T22:06:33.429Z,3.10
2022-11-30T22:11:38.927Z,3.10
2022-11-30T22:16:40.837Z,3.10
2022-11-30T22:21:49.478Z,3.00
2022-11-30T22:26:51.996Z,3.10
2022-11-30T22:31:54.369Z,3.00
2022-11-30T22:36:56.246Z,3.00
2022-11-30T22:41:58.108Z,3.00
2022-11-30T22:47:00.126Z,2.90
2022-11-30T22:52:01.976Z,2.90
2022-11-30T22:57:04.000Z,2.90
2022-11-30T23:02:05.846Z,2.90
2022-11-30T23:07:07.790Z,2.90
2022-11-30T23:12:09.923Z,2.90
2022-11-30T23:17:11.819Z,2.80
2022-11-30T23:22:13.596Z,2.80
2022-11-30T23:27:15.382Z,2.70
2022-11-30T23:32:17.242Z,2.60
2022-11-30T23:37:19.137Z,2.60
2022-11-30T23:42:20.921Z,2.50
2022-11-30T23:47:22.921Z,2.50
2022-11-30T23:52:24.757Z,2.50
2022-11-30T23:57:26.548Z,2.40
